Time;durP1;ratioP1;P1;durP2;ratioP2;P2;SDS_P1;SDS_P2;PMS_P1;PMS_P2;Temp;Humidity;BMP_temperature;BMP_pressure;BME280_temperature;BME280_humidity;BME280_pressure;Samples;Min_cycle;Max_cycle;Signal;HPM_P1;HPM_P2
2022/09/12 00:02:46;;;;;;;37.53;22.90;;;11.80;99.90;;;;;;4385760;28;660758;-65
2022/09/12 00:05:33;;;;;;;41.17;23.27;;;11.80;99.90;;;;;;4406113;28;661201;-65
2022/09/12 00:08:20;;;;;;;41.72;22.48;;;11.70;99.90;;;;;;4391622;28;661252;-66
2022/09/12 00:11:09;;;;;;;38.17;22.20;;;11.70;99.90;;;;;;4409533;28;661001;-65
2022/09/12 00:13:58;;;;;;;37.77;22.53;;;11.70;99.90;;;;;;4388060;28;661055;-66
2022/09/12 00:16:47;;;;;;;38.97;23.13;;;11.60;99.90;;;;;;4387677;28;660521;-65
2022/09/12 00:19:34;;;;;;;39.10;23.27;;;11.70;99.90;;;;;;4407224;28;660965;-65
2022/09/12 00:22:21;;;;;;;36.20;22.50;;;11.70;99.90;;;;;;4388363;28;660726;-65
2022/09/12 00:25:08;;;;;;;33.78;21.90;;;11.70;99.90;;;;;;4409901;28;661463;-65
2022/09/12 00:27:55;;;;;;;40.23;22.47;;;11.60;99.90;;;;;;4380045;28;660934;-65
2022/09/12 00:30:43;;;;;;;38.50;22.13;;;11.60;99.90;;;;;;4405286;28;661436;-65
2022/09/12 00:33:32;;;;;;;40.63;23.63;;;11.70;99.90;;;;;;4395533;28;661104;-66
2022/09/12 00:36:20;;;;;;;38.93;22.77;;;11.60;99.90;;;;;;4409541;28;660386;-65
2022/09/12 00:39:07;;;;;;;40.97;22.53;;;11.60;99.90;;;;;;4381869;28;661634;-65
2022/09/12 00:41:54;;;;;;;38.13;24.10;;;11.50;99.90;;;;;;4410262;28;660827;-65
2022/09/12 00:44:44;;;;;;;39.23;23.70;;;11.30;99.90;;;;;;4385243;28;660820;-65
2022/09/12 00:47:31;;;;;;;41.70;23.90;;;11.40;99.90;;;;;;4384028;28;660895;-65
2022/09/12 00:50:20;;;;;;;40.70;23.90;;;11.40;99.90;;;;;;4404048;28;661211;-65
2022/09/12 00:53:07;;;;;;;38.70;25.13;;;11.40;99.90;;;;;;4385157;28;661635;-65
2022/09/12 00:55:54;;;;;;;37.27;22.57;;;11.40;99.90;;;;;;4404098;28;660364;-66
2022/09/12 00:58:42;;;;;;;45.63;24.27;;;11.40;99.90;;;;;;4383937;28;660734;-65
2022/09/12 01:01:30;;;;;;;38.73;24.77;;;11.40;99.90;;;;;;4406442;28;660752;-66
2022/09/12 01:04:17;;;;;;;40.10;24.90;;;11.30;99.90;;;;;;4410177;28;660863;-65
2022/09/12 01:07:06;;;;;;;37.67;22.90;;;11.30;99.90;;;;;;4402558;28;660827;-65
2022/09/12 01:09:53;;;;;;;43.97;23.07;;;11.40;99.90;;;;;;4379901;28;661234;-66
2022/09/12 01:12:41;;;;;;;33.03;21.00;;;11.40;99.90;;;;;;4391564;28;660965;-66
2022/09/12 01:15:28;;;;;;;33.03;20.30;;;11.40;99.90;;;;;;4409373;28;661794;-65
2022/09/12 01:18:18;;;;;;;38.13;20.43;;;11.40;99.90;;;;;;4393574;28;661367;-66
2022/09/12 01:21:16;;;;;;;33.10;19.97;;;11.30;99.90;;;;;;4383042;28;661083;-66
2022/09/12 01:24:51;;;;;;;27.43;18.30;;;11.20;99.90;;;;;;4379455;28;661318;-65
2022/09/12 01:27:48;;;;;;;28.60;17.40;;;11.30;99.90;;;;;;4307727;28;660501;-65
2022/09/12 01:30:47;;;;;;;26.10;14.80;;;11.40;99.90;;;;;;4289308;28;660638;-65
2022/09/12 01:33:39;;;;;;;24.80;15.47;;;11.40;99.90;;;;;;4359628;28;660784;-65
2022/09/12 01:36:39;;;;;;;21.03;14.00;;;11.50;99.90;;;;;;4355357;28;660962;-65
2022/09/12 01:39:29;;;;;;;17.47;11.10;;;11.50;99.90;;;;;;4383645;28;661011;-65
2022/09/12 01:42:20;;;;;;;24.58;15.35;;;11.40;99.90;;;;;;4384549;28;660646;-65
2022/09/12 01:45:09;;;;;;;25.80;15.83;;;11.40;99.90;;;;;;4378793;28;661618;-65
2022/09/12 01:48:00;;;;;;;26.37;16.40;;;11.30;99.90;;;;;;4384164;28;660660;-65
2022/09/12 01:50:50;;;;;;;26.80;15.57;;;11.30;99.90;;;;;;4380885;28;661521;-65
2022/09/12 01:53:41;;;;;;;25.23;14.25;;;11.30;99.90;;;;;;4384238;28;662364;-64
2022/09/12 01:56:28;;;;;;;28.47;15.20;;;11.30;99.90;;;;;;4380833;28;660953;-64
2022/09/12 01:59:18;;;;;;;26.77;17.00;;;11.40;99.90;;;;;;4387091;28;660879;-65
2022/09/12 02:02:08;;;;;;;24.17;15.15;;;11.20;99.90;;;;;;4387212;28;660541;-65
2022/09/12 02:04:58;;;;;;;28.67;15.33;;;11.10;99.90;;;;;;4381626;28;661029;-66
2022/09/12 02:07:46;;;;;;;25.70;16.10;;;11.10;99.90;;;;;;4386925;28;660750;-66
2022/09/12 02:10:37;;;;;;;25.20;16.43;;;11.00;99.90;;;;;;4397394;28;661747;-65
2022/09/12 02:13:25;;;;;;;26.40;16.20;;;10.90;99.90;;;;;;4375928;28;660447;-65
2022/09/12 02:16:15;;;;;;;26.33;15.77;;;10.90;99.90;;;;;;4377726;28;661164;-65
2022/09/12 02:19:05;;;;;;;23.20;16.53;;;10.90;99.90;;;;;;4381757;28;660992;-65
2022/09/12 02:21:55;;;;;;;25.40;15.67;;;10.80;99.90;;;;;;4375345;28;661292;-65
2022/09/12 02:24:43;;;;;;;26.13;15.80;;;10.80;99.90;;;;;;4379911;28;661183;-64
2022/09/12 02:27:32;;;;;;;21.40;14.67;;;10.80;99.90;;;;;;4383674;28;661287;-65
2022/09/12 02:30:19;;;;;;;23.65;15.68;;;10.90;99.90;;;;;;4402961;28;661185;-65
2022/09/12 02:33:07;;;;;;;28.13;16.17;;;10.80;99.90;;;;;;4379110;28;661032;-65
2022/09/12 02:35:57;;;;;;;25.13;16.60;;;10.80;99.90;;;;;;4397114;28;660266;-65
2022/09/12 02:38:46;;;;;;;22.87;15.47;;;10.90;99.90;;;;;;4377552;28;661149;-65
2022/09/12 02:41:33;;;;;;;24.97;15.50;;;10.80;99.90;;;;;;4374209;28;661377;-65
2022/09/12 02:44:20;;;;;;;22.30;15.80;;;10.90;99.90;;;;;;4380790;28;661048;-66
2022/09/12 02:47:09;;;;;;;21.23;14.93;;;10.80;99.90;;;;;;4397803;28;661280;-65
2022/09/12 02:49:56;;;;;;;22.53;15.17;;;10.90;99.90;;;;;;4378454;28;660966;-65
2022/09/12 02:52:44;;;;;;;19.87;12.97;;;10.90;99.90;;;;;;4397677;28;660720;-65
2022/09/12 02:55:32;;;;;;;24.43;15.00;;;10.90;99.90;;;;;;4384141;28;660895;-64
2022/09/12 02:58:21;;;;;;;23.83;15.47;;;10.90;99.90;;;;;;4406160;28;660594;-65
2022/09/12 03:01:11;;;;;;;30.40;16.77;;;10.80;99.90;;;;;;4377979;28;661640;-65
2022/09/12 03:04:08;;;;;;;28.10;17.17;;;10.90;99.90;;;;;;4381374;28;660495;-64
2022/09/12 03:07:01;;;;;;;27.77;15.23;;;10.90;99.90;;;;;;4358770;28;661275;-65
2022/09/12 03:09:51;;;;;;;36.97;17.33;;;10.80;99.90;;;;;;4377754;28;661143;-64
2022/09/12 03:12:47;;;;;;;35.27;20.47;;;10.80;99.90;;;;;;4378002;28;660769;-65
2022/09/12 03:15:40;;;;;;;37.63;21.20;;;10.80;99.90;;;;;;4381741;28;660828;-65
2022/09/12 03:18:42;;;;;;;40.37;21.73;;;10.70;99.90;;;;;;4383930;28;661055;-64
2022/09/12 03:21:31;;;;;;;36.80;19.17;;;10.60;99.90;;;;;;4383825;28;660816;-65
2022/09/12 03:24:20;;;;;;;38.17;23.40;;;10.70;99.90;;;;;;4384163;28;660885;-65
2022/09/12 03:27:09;;;;;;;34.80;18.63;;;10.60;99.90;;;;;;4381936;28;660974;-65
2022/09/12 03:29:58;;;;;;;47.27;23.77;;;10.60;99.90;;;;;;4386239;28;661315;-65
2022/09/12 03:32:46;;;;;;;43.10;24.10;;;10.50;99.90;;;;;;4384550;28;660656;-65
2022/09/12 03:35:33;;;;;;;42.60;24.87;;;10.40;99.90;;;;;;4405439;28;661176;-64
2022/09/12 03:38:20;;;;;;;40.90;24.47;;;10.30;99.90;;;;;;4388040;28;660521;-65
2022/09/12 03:41:08;;;;;;;35.70;21.97;;;10.40;99.90;;;;;;4403030;28;661559;-65
2022/09/12 03:43:55;;;;;;;38.30;22.87;;;10.40;99.90;;;;;;4394744;28;661096;-66
2022/09/12 03:46:44;;;;;;;41.00;23.13;;;10.50;99.90;;;;;;4406549;28;661656;-65
2022/09/12 03:49:31;;;;;;;40.27;23.57;;;10.50;99.90;;;;;;4380955;28;660831;-65
2022/09/12 03:52:18;;;;;;;40.72;22.67;;;10.50;99.90;;;;;;4401991;28;662194;-65
2022/09/12 03:55:06;;;;;;;39.93;23.17;;;10.50;99.90;;;;;;4382974;28;661283;-65
2022/09/12 03:57:53;;;;;;;37.93;21.90;;;10.40;99.90;;;;;;4405231;28;661410;-65
2022/09/12 04:00:41;;;;;;;33.10;20.77;;;10.40;99.90;;;;;;4378640;28;661000;-65
2022/09/12 04:03:30;;;;;;;37.30;19.80;;;10.40;99.90;;;;;;4404044;28;660745;-65
2022/09/12 04:06:18;;;;;;;35.73;20.80;;;10.30;99.90;;;;;;4382355;28;660603;-64
2022/09/12 04:09:05;;;;;;;35.33;20.67;;;10.20;99.90;;;;;;4382174;28;661258;-65
2022/09/12 04:11:52;;;;;;;32.73;20.97;;;10.20;99.90;;;;;;4403445;28;661571;-67
2022/09/12 04:14:40;;;;;;;31.23;19.17;;;10.30;99.90;;;;;;4403344;28;661556;-66
2022/09/12 04:17:27;;;;;;;29.83;18.75;;;10.30;99.90;;;;;;4402580;28;661566;-64
2022/09/12 04:20:16;;;;;;;32.27;17.60;;;10.40;99.90;;;;;;4404832;28;661392;-65
2022/09/12 04:23:03;;;;;;;22.70;16.10;;;10.40;99.90;;;;;;4383029;28;661916;-65
2022/09/12 04:25:54;;;;;;;26.17;16.17;;;10.40;99.90;;;;;;4389384;28;660792;-66
2022/09/12 04:28:41;;;;;;;29.00;16.03;;;10.30;99.90;;;;;;4387533;28;660833;-65
2022/09/12 04:31:28;;;;;;;28.48;16.38;;;10.30;99.90;;;;;;4402893;28;661436;-65
2022/09/12 04:34:15;;;;;;;27.00;17.90;;;10.20;99.90;;;;;;4385906;28;661380;-65
2022/09/12 04:37:04;;;;;;;31.83;19.03;;;10.20;99.90;;;;;;4403844;28;662666;-65
2022/09/12 04:39:54;;;;;;;42.53;22.97;;;10.00;99.90;;;;;;4383123;28;661048;-65
2022/09/12 04:42:41;;;;;;;43.37;21.53;;;10.10;99.90;;;;;;4385392;28;660547;-65
2022/09/12 04:45:29;;;;;;;34.00;19.40;;;10.20;99.90;;;;;;4405656;28;660936;-65
2022/09/12 04:48:16;;;;;;;32.33;17.77;;;10.20;99.90;;;;;;4386809;28;661474;-65
2022/09/12 04:51:09;;;;;;;33.93;18.60;;;10.20;99.90;;;;;;4407176;28;661315;-64
2022/09/12 04:53:59;;;;;;;32.20;17.40;;;10.10;99.90;;;;;;4354092;28;661712;-64
2022/09/12 04:56:47;;;;;;;33.60;19.60;;;10.10;99.90;;;;;;4380044;28;661786;-65
2022/09/12 04:59:34;;;;;;;30.37;17.30;;;10.10;99.90;;;;;;4400846;28;660915;-65
2022/09/12 05:02:21;;;;;;;29.50;16.87;;;10.10;99.90;;;;;;4383010;28;661109;-65
2022/09/12 05:05:09;;;;;;;31.87;17.80;;;10.20;99.90;;;;;;4402488;28;660441;-65
2022/09/12 05:07:56;;;;;;;30.27;15.87;;;10.20;99.90;;;;;;4383614;28;660517;-65
2022/09/12 05:10:45;;;;;;;27.33;16.33;;;10.30;99.90;;;;;;4398190;28;662217;-65
2022/09/12 05:13:32;;;;;;;29.40;15.27;;;10.30;99.90;;;;;;4383092;28;661529;-64
2022/09/12 05:16:19;;;;;;;26.00;16.17;;;10.30;99.90;;;;;;4397838;28;660403;-65
2022/09/12 05:19:06;;;;;;;25.03;15.03;;;10.30;99.90;;;;;;4380267;28;660634;-65
2022/09/12 05:21:53;;;;;;;26.50;15.57;;;10.20;99.90;;;;;;4404136;28;660839;-66
2022/09/12 05:24:42;;;;;;;23.90;13.17;;;10.30;99.90;;;;;;4383235;28;660833;-64
2022/09/12 05:27:30;;;;;;;21.43;12.77;;;10.40;99.90;;;;;;4407443;28;660136;-64
2022/09/12 05:30:17;;;;;;;19.03;12.90;;;10.50;99.90;;;;;;4378075;28;661114;-64
2022/09/12 05:33:05;;;;;;;17.63;12.23;;;10.50;99.90;;;;;;4393634;28;660718;-66
2022/09/12 05:35:52;;;;;;;24.17;12.75;;;10.50;99.90;;;;;;4407358;28;660654;-64
2022/09/12 05:38:39;;;;;;;17.97;11.13;;;10.50;99.90;;;;;;4400333;28;660184;-64
2022/09/12 05:41:28;;;;;;;20.40;12.53;;;10.60;99.90;;;;;;4382495;28;660709;-64
2022/09/12 05:44:16;;;;;;;18.10;11.80;;;10.60;99.90;;;;;;4386908;28;662602;-65
2022/09/12 05:47:04;;;;;;;17.40;10.83;;;10.60;99.90;;;;;;4398850;28;660572;-64
2022/09/12 05:49:51;;;;;;;22.23;12.00;;;10.70;99.90;;;;;;4380534;28;660441;-64
2022/09/12 05:52:38;;;;;;;20.97;13.53;;;10.70;99.90;;;;;;4398787;28;660848;-65
2022/09/12 05:55:26;;;;;;;22.77;13.27;;;10.60;99.90;;;;;;4381179;28;661065;-64
2022/09/12 05:58:13;;;;;;;21.30;13.73;;;10.50;99.90;;;;;;4406450;28;660946;-65
2022/09/12 06:01:06;;;;;;;20.33;13.25;;;10.50;99.90;;;;;;4385853;28;660630;-65
2022/09/12 06:03:54;;;;;;;8.57;5.47;;;10.40;99.90;;;;;;4374773;28;661201;-64
2022/09/12 06:06:43;;;;;;;20.10;12.13;;;10.60;99.90;;;;;;4382575;28;658878;-65
2022/09/12 06:09:31;;;;;;;18.63;11.80;;;10.60;99.90;;;;;;4385080;28;661430;-64
2022/09/12 06:12:18;;;;;;;25.53;12.93;;;10.60;99.90;;;;;;4399649;28;661132;-64
2022/09/12 06:15:06;;;;;;;24.40;12.03;;;10.60;99.90;;;;;;4381236;28;660882;-65
2022/09/12 06:17:55;;;;;;;10.63;5.70;;;10.50;99.90;;;;;;4400045;28;661077;-64
2022/09/12 06:20:42;;;;;;;14.70;10.33;;;10.70;99.90;;;;;;4385208;28;661988;-64
2022/09/12 06:23:29;;;;;;;18.87;10.50;;;10.70;99.90;;;;;;4399062;28;660228;-65
2022/09/12 06:26:17;;;;;;;16.43;10.83;;;10.80;99.90;;;;;;4379733;28;660737;-65
2022/09/12 06:29:04;;;;;;;17.13;10.03;;;10.80;99.90;;;;;;4403019;28;660431;-64
2022/09/12 06:31:51;;;;;;;14.97;9.07;;;10.70;99.90;;;;;;4378252;28;661103;-64
2022/09/12 06:34:40;;;;;;;16.03;9.53;;;10.80;99.90;;;;;;4401783;28;659544;-64
2022/09/12 06:37:27;;;;;;;10.77;7.87;;;11.00;99.90;;;;;;4375648;28;659934;-66
2022/09/12 06:40:14;;;;;;;13.23;7.93;;;11.10;99.90;;;;;;4406330;28;659455;-63
2022/09/12 06:43:01;;;;;;;13.57;8.20;;;11.30;99.90;;;;;;4383169;28;661509;-64
2022/09/12 06:45:49;;;;;;;17.60;8.63;;;10.90;99.90;;;;;;4401749;28;659823;-64
2022/09/12 06:48:36;;;;;;;14.00;7.57;;;11.10;99.90;;;;;;4381899;28;659699;-65
2022/09/12 06:51:25;;;;;;;12.47;7.83;;;11.40;99.90;;;;;;4402711;28;660583;-64
2022/09/12 06:54:12;;;;;;;15.13;7.73;;;11.50;99.90;;;;;;4382847;28;660612;-64
2022/09/12 06:57:01;;;;;;;13.20;7.80;;;11.30;99.90;;;;;;4401813;28;660476;-66
2022/09/12 06:59:48;;;;;;;11.37;7.80;;;11.20;99.90;;;;;;4406461;28;660261;-64
2022/09/12 07:02:35;;;;;;;13.27;8.30;;;11.50;99.90;;;;;;4385967;28;659744;-65
2022/09/12 07:05:22;;;;;;;14.77;9.20;;;11.60;99.90;;;;;;4402325;28;660749;-64
2022/09/12 07:08:11;;;;;;;14.97;8.03;;;11.30;99.90;;;;;;4390631;28;659840;-65
2022/09/12 07:10:59;;;;;;;16.37;8.90;;;11.40;99.90;;;;;;4401932;28;659777;-64
2022/09/12 07:13:48;;;;;;;13.97;8.80;;;11.40;99.90;;;;;;4383766;28;660838;-64
2022/09/12 07:16:35;;;;;;;14.00;8.63;;;11.60;99.90;;;;;;4381686;28;659676;-65
2022/09/12 07:19:23;;;;;;;15.63;9.80;;;11.70;99.90;;;;;;4398492;28;661672;-64
2022/09/12 07:22:11;;;;;;;15.18;9.32;;;11.90;99.90;;;;;;4374824;28;659696;-65
2022/09/12 07:24:59;;;;;;;14.00;8.80;;;11.80;99.90;;;;;;4397481;28;660499;-64
2022/09/12 07:27:46;;;;;;;13.87;8.50;;;12.00;99.90;;;;;;4375197;28;659629;-64
2022/09/12 07:30:33;;;;;;;17.13;9.40;;;11.70;99.90;;;;;;4398305;28;659964;-64
2022/09/12 07:33:20;;;;;;;16.03;9.33;;;11.70;99.90;;;;;;4374771;28;660013;-65
2022/09/12 07:36:10;;;;;;;18.90;8.83;;;12.30;99.90;;;;;;4400748;28;660728;-65
2022/09/12 07:38:57;;;;;;;11.10;5.50;;;12.90;99.90;;;;;;4376887;28;660104;-65
2022/09/12 07:41:46;;;;;;;14.77;6.80;;;13.10;99.90;;;;;;4398002;28;659448;-65
2022/09/12 07:44:33;;;;;;;12.97;6.40;;;13.00;99.90;;;;;;4376760;28;660306;-64
2022/09/12 07:47:20;;;;;;;12.07;5.33;;;13.00;99.90;;;;;;4383169;28;660991;-66
2022/09/12 07:50:08;;;;;;;6.97;4.15;;;13.60;99.90;;;;;;4398497;28;659863;-64
2022/09/12 07:52:55;;;;;;;12.27;5.63;;;13.90;99.90;;;;;;4387593;28;658403;-66
2022/09/12 07:55:42;;;;;;;10.27;4.87;;;13.20;99.90;;;;;;4403383;28;660870;-64
2022/09/12 07:58:31;;;;;;;8.20;4.70;;;13.20;99.90;;;;;;4399396;28;660217;-65
2022/09/12 08:01:19;;;;;;;13.73;5.60;;;12.90;99.90;;;;;;4381675;28;658509;-64
2022/09/12 08:04:06;;;;;;;9.27;4.33;;;12.80;99.90;;;;;;4380709;28;659520;-64
2022/09/12 08:06:53;;;;;;;10.40;5.23;;;12.70;99.90;;;;;;4402786;28;660273;-64
2022/09/12 08:09:40;;;;;;;14.32;5.40;;;12.50;99.90;;;;;;4386346;28;659889;-65
2022/09/12 08:12:27;;;;;;;12.13;5.70;;;13.10;99.90;;;;;;4406940;28;659566;-64
2022/09/12 08:15:16;;;;;;;12.50;5.33;;;12.90;99.90;;;;;;4397829;28;659395;-64
2022/09/12 08:18:03;;;;;;;10.77;4.93;;;12.60;99.90;;;;;;4383860;28;661631;-64
2022/09/12 08:20:56;;;;;;;7.80;3.67;;;12.80;99.90;;;;;;4379783;28;660290;-65
2022/09/12 08:23:43;;;;;;;5.63;3.00;;;13.50;99.90;;;;;;4379585;28;659437;-64
2022/09/12 08:26:31;;;;;;;5.13;2.43;;;14.40;99.90;;;;;;4380844;28;658566;-64
2022/09/12 08:29:18;;;;;;;3.73;1.70;;;15.10;99.90;;;;;;4404148;28;658157;-64
2022/09/12 08:32:07;;;;;;;8.03;1.73;;;15.60;99.90;;;;;;4385072;28;658727;-64
2022/09/12 08:34:54;;;;;;;3.67;2.00;;;15.70;99.90;;;;;;4404305;28;659784;-64
2022/09/12 08:37:41;;;;;;;7.43;2.77;;;14.90;99.90;;;;;;4386220;28;658815;-64
2022/09/12 08:40:28;;;;;;;6.10;2.60;;;14.80;99.90;;;;;;4401635;28;659431;-66
2022/09/12 08:43:22;;;;;;;10.33;3.40;;;14.30;99.90;;;;;;4377835;28;658675;-65
2022/09/12 08:46:13;;;;;;;7.67;2.87;;;14.70;99.90;;;;;;4379672;28;659917;-65
2022/09/12 08:49:02;;;;;;;6.77;3.47;;;15.40;99.90;;;;;;4383524;28;658392;-66
2022/09/12 08:51:49;;;;;;;6.07;2.90;;;15.80;99.90;;;;;;4404208;28;660513;-64
2022/09/12 08:54:37;;;;;;;4.93;2.90;;;16.10;99.90;;;;;;4382550;28;658522;-64
2022/09/12 08:57:24;;;;;;;7.53;2.80;;;16.20;99.90;;;;;;4414949;28;658812;-64
2022/09/12 09:00:14;;;;;;;4.87;3.00;;;15.30;99.90;;;;;;4379381;28;659319;-63
2022/09/12 09:03:28;;;;;;;10.40;1.90;;;15.20;99.90;;;;;;4378347;28;659052;-65
2022/09/12 09:06:31;;;;;;;3.80;2.00;;;14.70;99.90;;;;;;4353316;28;659934;-66
2022/09/12 09:09:21;;;;;;;4.37;2.20;;;16.20;99.90;;;;;;4377538;28;659070;-64
2022/09/12 09:12:12;;;;;;;6.50;2.50;;;16.10;99.90;;;;;;4388661;28;659202;-65
2022/09/12 09:15:10;;;;;;;5.23;1.93;;;15.90;99.90;;;;;;4374770;28;658487;-64
2022/09/12 09:17:59;;;;;;;3.67;2.00;;;16.00;99.90;;;;;;4356116;28;659726;-64
2022/09/12 09:20:49;;;;;;;5.37;1.53;;;15.50;99.90;;;;;;4376591;28;658727;-65
2022/09/12 09:23:40;;;;;;;5.13;1.70;;;15.50;99.90;;;;;;4386400;28;658236;-64
2022/09/12 09:26:29;;;;;;;3.60;1.43;;;15.60;99.90;;;;;;4385125;28;659920;-65
2022/09/12 09:29:17;;;;;;;7.90;1.90;;;16.20;99.90;;;;;;4383966;28;658330;-65
2022/09/12 09:32:09;;;;;;;5.03;1.93;;;16.10;99.90;;;;;;4402433;28;659487;-64
2022/09/12 09:34:56;;;;;;;6.17;1.77;;;16.30;99.90;;;;;;4361205;28;659383;-64
2022/09/12 09:37:44;;;;;;;2.97;1.90;;;17.00;99.90;;;;;;4394887;28;659991;-64
2022/09/12 09:40:39;;;;;;;6.50;1.70;;;17.60;99.90;;;;;;4380162;28;658638;-64
2022/09/12 09:43:27;;;;;;;1.33;1.03;;;16.90;99.90;;;;;;4381420;28;659070;-64
2022/09/12 09:46:15;;;;;;;3.93;2.47;;;16.40;99.90;;;;;;4405098;28;659025;-65
2022/09/12 09:49:03;;;;;;;4.63;2.10;;;15.80;99.90;;;;;;4405524;28;659493;-65
2022/09/12 09:51:50;;;;;;;3.57;1.87;;;15.60;99.90;;;;;;4391115;28;658661;-65
2022/09/12 09:54:40;;;;;;;2.03;1.40;;;16.00;99.90;;;;;;4400074;28;659375;-64
2022/09/12 09:57:43;;;;;;;7.37;1.93;;;16.80;99.90;;;;;;4381929;28;658675;-64
2022/09/12 10:00:31;;;;;;;4.07;1.90;;;17.80;99.90;;;;;;4355751;28;658565;-65
2022/09/12 10:03:30;;;;;;;2.60;1.70;;;17.80;99.90;;;;;;4401861;28;659745;-65
2022/09/12 10:06:31;;;;;;;3.83;1.90;;;17.10;99.90;;;;;;4347985;28;659236;-64
2022/09/12 10:09:20;;;;;;;3.57;1.90;;;16.00;99.90;;;;;;4383040;28;658734;-65
2022/09/12 10:12:20;;;;;;;4.50;2.40;;;16.20;99.90;;;;;;4380822;28;659429;-64
2022/09/12 10:15:17;;;;;;;6.40;2.40;;;16.30;99.90;;;;;;4356198;28;659415;-64
2022/09/12 10:18:05;;;;;;;6.57;2.60;;;16.60;99.90;;;;;;4401041;28;659028;-65
2022/09/12 10:20:52;;;;;;;8.37;2.93;;;15.90;99.90;;;;;;4405655;28;658711;-64
2022/09/12 10:23:40;;;;;;;5.57;2.30;;;16.10;99.90;;;;;;4397549;28;658668;-66
2022/09/12 10:26:27;;;;;;;5.75;2.70;;;16.90;99.90;;;;;;4404215;28;658931;-64
2022/09/12 10:29:16;;;;;;;6.13;2.10;;;17.80;99.90;;;;;;4404465;28;658410;-64
2022/09/12 10:32:06;;;;;;;6.67;2.13;;;17.60;99.90;;;;;;4385223;28;659315;-64
2022/09/12 10:34:53;;;;;;;3.50;1.97;;;17.80;99.90;;;;;;4382983;28;659908;-64
2022/09/12 10:37:40;;;;;;;3.23;1.90;;;17.20;99.90;;;;;;4380824;28;658615;-64
2022/09/12 10:40:30;;;;;;;3.70;1.90;;;17.00;99.90;;;;;;4389573;28;659353;-64
2022/09/12 10:43:18;;;;;;;4.60;2.00;;;16.60;99.90;;;;;;4379832;28;658820;-65
2022/09/12 10:46:21;;;;;;;3.80;1.70;;;15.40;99.90;;;;;;4385967;28;658466;-65
2022/09/12 10:49:23;;;;;;;2.83;1.83;;;15.80;99.90;;;;;;4376893;28;658646;-65
2022/09/12 10:52:17;;;;;;;1.43;1.10;;;16.50;99.90;;;;;;4366574;28;658779;-65
2022/09/12 10:55:08;;;;;;;5.50;1.80;;;16.80;97.70;;;;;;4376942;28;659091;-64
2022/09/12 10:58:02;;;;;;;4.97;1.90;;;16.70;99.90;;;;;;4362936;28;659298;-65
2022/09/12 11:00:52;;;;;;;4.13;1.90;;;17.20;98.80;;;;;;4399364;28;658467;-66
2022/09/12 11:03:49;;;;;;;2.37;1.20;;;17.50;97.40;;;;;;4398060;28;658422;-63
2022/09/12 11:06:40;;;;;;;6.70;1.80;;;17.30;96.20;;;;;;4381509;28;658421;-63
2022/09/12 11:09:29;;;;;;;3.70;1.40;;;17.40;96.10;;;;;;4373795;28;660315;-63
2022/09/12 11:12:19;;;;;;;3.60;1.50;;;17.80;97.20;;;;;;4383514;28;658468;-63
2022/09/12 11:15:16;;;;;;;2.33;1.30;;;17.80;95.10;;;;;;4385182;28;658323;-63
2022/09/12 11:18:08;;;;;;;5.43;1.50;;;16.80;94.30;;;;;;4379400;28;658837;-63
2022/09/12 11:21:08;;;;;;;1.80;0.90;;;16.60;94.40;;;;;;4383003;28;660099;-63
2022/09/12 11:24:26;;;;;;;1.23;1.13;;;17.60;97.10;;;;;;4367229;28;659091;-65
2022/09/12 11:27:24;;;;;;;2.27;1.40;;;18.00;96.00;;;;;;4381982;28;658834;-63
2022/09/12 11:30:12;;;;;;;4.03;1.60;;;18.40;94.60;;;;;;4386958;28;658797;-63
2022/09/12 11:33:06;;;;;;;3.27;1.73;;;17.90;94.80;;;;;;4404974;28;658699;-63
2022/09/12 11:35:56;;;;;;;3.27;1.60;;;18.00;95.50;;;;;;4382560;28;660051;-63
2022/09/12 11:38:51;;;;;;;4.37;1.60;;;17.50;95.00;;;;;;4385750;28;659471;-64
2022/09/12 11:41:40;;;;;;;4.57;1.70;;;17.80;93.20;;;;;;4388217;28;658611;-63
2022/09/12 11:44:29;;;;;;;5.70;1.50;;;18.30;92.90;;;;;;4387053;28;659690;-64
2022/09/12 11:47:19;;;;;;;8.43;1.40;;;18.30;94.10;;;;;;4388477;28;658590;-63
2022/09/12 11:50:22;;;;;;;2.33;1.37;;;18.30;93.90;;;;;;4391324;28;659323;-64
2022/09/12 11:53:12;;;;;;;2.97;1.50;;;18.00;90.90;;;;;;4384671;28;658572;-63
2022/09/12 11:56:04;;;;;;;3.22;1.55;;;17.40;93.50;;;;;;4381194;28;659344;-65
2022/09/12 11:58:55;;;;;;;2.47;1.13;;;17.30;92.60;;;;;;4390390;28;658651;-64
2022/09/12 12:01:42;;;;;;;3.80;1.40;;;16.90;93.60;;;;;;4386412;28;659946;-63
2022/09/12 12:04:35;;;;;;;3.67;1.00;;;16.50;93.70;;;;;;4403486;28;658590;-65
2022/09/12 12:07:22;;;;;;;0.80;0.70;;;17.50;93.90;;;;;;4383947;28;659587;-63
2022/09/12 12:10:23;;;;;;;2.50;1.60;;;17.70;93.90;;;;;;4410013;28;658079;-63
2022/09/12 12:13:16;;;;;;;2.70;1.47;;;18.40;95.30;;;;;;4375447;28;658436;-64
2022/09/12 12:16:06;;;;;;;2.33;1.30;;;19.30;88.30;;;;;;4386740;28;659095;-63
2022/09/12 12:18:54;;;;;;;5.70;1.47;;;19.90;90.10;;;;;;4391218;28;659102;-64
2022/09/12 12:21:42;;;;;;;5.40;1.63;;;19.60;90.20;;;;;;4390717;28;658535;-63
2022/09/12 12:24:29;;;;;;;2.40;1.60;;;19.60;83.60;;;;;;4407155;28;658519;-64
2022/09/12 12:27:23;;;;;;;2.63;1.50;;;18.70;80.30;;;;;;4387790;28;659331;-63
2022/09/12 12:30:42;;;;;;;2.73;1.47;;;18.10;84.30;;;;;;4386827;28;658624;-65
2022/09/12 12:33:54;;;;;;;2.63;1.33;;;18.90;90.10;;;;;;4382938;28;658366;-63
2022/09/12 12:36:41;;;;;;;2.77;1.30;;;18.60;81.70;;;;;;4385934;28;658298;-64
2022/09/12 12:40:01;;;;;;;4.83;1.47;;;18.20;85.70;;;;;;4404668;28;659466;-63
2022/09/12 12:42:59;;;;;;;2.10;1.40;;;18.00;89.10;;;;;;4381815;28;659075;-63
2022/09/12 12:46:11;;;;;;;4.07;1.50;;;18.70;89.70;;;;;;4388736;28;658938;-63
2022/09/12 12:49:20;;;;;;;3.83;1.70;;;19.10;89.10;;;;;;4379962;28;659083;-63
2022/09/12 12:52:15;;;;;;;4.60;1.60;;;17.60;88.80;;;;;;4384281;28;658808;-63
2022/09/12 12:55:03;;;;;;;3.47;1.30;;;17.80;92.80;;;;;;4360290;28;659230;-64
2022/09/12 12:57:50;;;;;;;4.50;1.70;;;18.80;89.90;;;;;;4390662;28;659239;-64
2022/09/12 13:00:38;;;;;;;4.67;1.23;;;19.20;87.40;;;;;;4407334;28;658956;-63
2022/09/12 13:03:27;;;;;;;5.17;1.73;;;19.50;90.20;;;;;;4390036;28;658529;-65
2022/09/12 13:06:31;;;;;;;5.77;1.40;;;19.40;89.00;;;;;;4406403;28;659359;-62
2022/09/12 13:09:21;;;;;;;9.27;1.63;;;18.70;83.30;;;;;;4379567;28;659000;-64
2022/09/12 13:12:09;;;;;;;2.87;1.50;;;19.00;89.40;;;;;;4386140;28;659925;-63
2022/09/12 13:14:58;;;;;;;3.00;1.30;;;19.50;85.40;;;;;;4384187;28;658526;-62
2022/09/12 13:17:46;;;;;;;4.17;1.63;;;20.30;82.70;;;;;;4392098;28;658766;-64
2022/09/12 13:20:34;;;;;;;3.33;1.57;;;20.10;84.40;;;;;;4408776;28;658763;-63
2022/09/12 13:23:23;;;;;;;2.90;1.50;;;20.70;82.60;;;;;;4383174;28;658322;-63
2022/09/12 13:26:11;;;;;;;3.47;1.60;;;20.80;76.20;;;;;;4385272;28;659064;-63
2022/09/12 13:29:12;;;;;;;4.50;2.00;;;20.40;75.30;;;;;;4405137;28;660094;-63
2022/09/12 13:32:00;;;;;;;4.03;1.90;;;19.90;73.40;;;;;;4374068;28;658767;-63
2022/09/12 13:34:57;;;;;;;2.87;1.80;;;19.70;77.70;;;;;;4381633;28;659591;-63
2022/09/12 13:37:45;;;;;;;7.40;2.20;;;20.50;80.10;;;;;;4382454;28;660199;-63
2022/09/12 13:40:36;;;;;;;5.73;2.20;;;20.30;76.00;;;;;;4383357;28;659722;-63
2022/09/12 13:43:26;;;;;;;3.67;1.90;;;20.40;76.40;;;;;;4379712;28;658597;-63
2022/09/12 13:46:15;;;;;;;7.37;1.83;;;20.00;77.50;;;;;;4381975;28;659189;-63
2022/09/12 13:49:08;;;;;;;4.57;1.87;;;19.50;76.40;;;;;;4376737;28;660562;-63
2022/09/12 13:51:59;;;;;;;4.97;1.93;;;19.30;81.40;;;;;;4399435;28;658958;-64
2022/09/12 13:54:46;;;;;;;4.27;2.00;;;19.50;80.70;;;;;;4386427;28;659008;-63
2022/09/12 13:57:36;;;;;;;4.30;1.70;;;20.50;80.10;;;;;;4406202;28;659558;-63
2022/09/12 14:00:23;;;;;;;2.80;1.70;;;20.40;79.00;;;;;;4380209;28;660079;-63
2022/09/12 14:06:34;;;;;;;6.67;2.40;;;19.60;80.10;;;;;;4378030;28;658585;-63
2022/09/12 14:09:23;;;;;;;3.80;2.23;;;19.10;82.40;;;;;;4362323;28;659089;-63
2022/09/12 14:12:17;;;;;;;6.00;2.53;;;20.00;83.50;;;;;;4401001;28;658696;-64
2022/09/12 14:15:11;;;;;;;5.53;2.47;;;20.20;80.40;;;;;;4385541;28;658566;-63
2022/09/12 14:18:00;;;;;;;4.50;1.97;;;20.30;82.00;;;;;;4381581;28;659294;-63
2022/09/12 14:20:47;;;;;;;3.03;1.90;;;21.40;83.50;;;;;;4380898;28;659618;-64
2022/09/12 14:23:38;;;;;;;3.47;1.57;;;22.20;79.70;;;;;;4385896;28;658311;-65
2022/09/12 14:26:27;;;;;;;7.97;1.77;;;22.20;76.20;;;;;;4391775;28;658821;-65